Fecha, hora, temperatura, viento dirección y velocidad, humedad y presión.

  • 16-01-2019 16:00:00 | 12.70°C | Oeste |16.00 km/h | 77.00% | 1007.60 hPa
  • 16-01-2019 15:00:00 | 13.20°C | Oeste |13.00 km/h | 69.00% | 1007.80 hPa
  • 16-01-2019 14:00:00 | 13.80°C | Oeste |24.00 km/h | 63.00% | 1008.00 hPa
  • 16-01-2019 13:00:00 | 13.00°C | Oeste |29.00 km/h | 63.00% | 1008.40 hPa
  • 16-01-2019 12:00:00 | 12.90°C | Oeste |37.00 km/h | 63.00% | 1008.50 hPa
  • 16-01-2019 11:00:00 | 12.40°C | Oeste |35.00 km/h | 63.00% | 1008.60 hPa
  • 16-01-2019 10:00:00 | 12.20°C | Sudoeste |22.00 km/h | 63.00% | 1008.40 hPa
  • 16-01-2019 09:00:00 | 11.50°C | Oeste |28.00 km/h | 65.00% | 1008.30 hPa
  • 16-01-2019 08:00:00 | 7.40°C | Sur |15.00 km/h | 72.00% | 1008.50 hPa
  • 16-01-2019 07:00:00 | 8.80°C | Sudoeste |32.00 km/h | 75.00% | 1008.00 hPa
  • 16-01-2019 06:00:00 | 5.30°C | Sudeste |16.00 km/h | 81.00% | 1008.60 hPa
  • 16-01-2019 05:00:00 | 7.00°C | Sudoeste |14.00 km/h | 81.00% | 1008.90 hPa
  • 16-01-2019 04:00:00 | 6.30°C | Sur |16.00 km/h | 81.00% | 1009.20 hPa
  • 16-01-2019 03:00:00 | 5.80°C | Sur |13.00 km/h | 83.00% | 1009.40 hPa
  • 16-01-2019 02:00:00 | 5.40°C | Sur |16.00 km/h | 85.00% | 1009.80 hPa
  • 16-01-2019 01:00:00 | 5.80°C | Sudeste |13.00 km/h | 85.00% | 1010.10 hPa
  • 16-01-2019 00:00:00 | 6.40°C | Sudeste |14.00 km/h | 84.00% | 1010.50 hPa
  • 15-01-2019 23:00:00 | 7.20°C | Sur |13.00 km/h | 84.00% | 1010.80 hPa
  • 15-01-2019 22:00:00 | 7.40°C | Sur |14.00 km/h | 85.00% | 1010.80 hPa
  • 15-01-2019 21:00:00 | 7.50°C | Sudeste |14.00 km/h | 86.00% | 1010.80 hPa
  • 15-01-2019 20:00:00 | 8.20°C | Sur |12.00 km/h | 83.00% | 1010.80 hPa
  • 15-01-2019 19:00:00 | 9.70°C | Sur |4.00 km/h | 79.00% | 1010.90 hPa
  • 15-01-2019 18:00:00 | 11.50°C | Este |9.00 km/h | 76.00% | 1010.80 hPa
  • 15-01-2019 17:00:00 | 12.30°C | Este |11.00 km/h | 72.00% | 1011.00 hPa
    • diseño web asturias Información sobre el estado de las mareas, altura de la marejada, temperatura del agua y otros datos de Gijón en Asturias.

      Surf Gijón